Pointe-des-Monts to Anticosti - northern half: Past 24 Hour Conditions

 

Northeast Burgeo Bank - 44255

06:00 AM ADT 25 October 2014Buoy position: 47.27N 57.37W
This table is a summary of hourly weather conditions for the past 24 hours.
Date / Time
(ADT)
Wind(knots) Wave height(m) Wave period(s) Pressure(kPa) Air tempC) Water tempC)
25 October 2014
6:00 NE 23 gust 27 2.1 9.0 99.5 10 11
5:00 NNE 19 gust 23 2.0 5.0 99.6 10 11
4:00 NE 16 gust 19 2.1 6.0 99.6 11 11
3:00 NE 23 gust 27 2.2 6.0 99.6 11 11
2:00 ENE 25 gust 29 2.0 6.0 99.7 11 11
1:00 ENE 23 gust 27 2.0 10.0 99.7 11 11
0:00 ENE 21 gust 25 2.0 10.0 99.8 11 11
24 October 2014
23:00 ENE 21 gust 25 1.9 8.0 99.9 11 11
22:00 ENE 19 gust 23 1.9 8.0 99.9 11 11
21:00 ENE 19 gust 23 2.0 8.0 100.0 11 11
20:00 ENE 19 gust 23 2.0 8.0 100.0 11 11
19:00 ENE 21 gust 25 2.0 5.0 100.0 11 11
18:00 ENE 23 gust 29 2.1 9.0 100.1 12 11
17:00 ENE 21 gust 27 2.1 6.0 100.2 12 11
16:00 ENE 21 gust 27 2.2 9.0 100.3 12 11
15:00 ENE 23 gust 27 2.3 6.0 100.4 12 11
14:00 ENE 23 gust 29 2.3 9.0 100.5 12 11
13:00 ENE 23 gust 27 2.5 6.0 100.6 11 11
12:00 ENE 23 gust 29 2.7 8.0 100.7 11 11
11:00 ENE 25 gust 29 2.6 8.0 100.8 11 11
10:00 ENE 23 gust 29 2.7 8.0 100.9 11 11
9:00 E 23 gust 27 2.7 9.0 101.0 11 11
8:00 ENE 23 gust 29 2.6 8.0 101.1 11 11
7:00 ENE 23 gust 29 2.6 10.0 101.1 11 11
6:00 ENE 23 N/A N/A N/A 11 N/A
 
Map of Atlantic - Maritimes marine weather areas East Scotia Slope - 44137 Southwestern Grand Banks - 44138 Banquereau - 44139 Laurentian Fan - 44141 LaHave Bank - 44150 Northeast Burgeo Bank - 44255 Halifax Harbour - 44258 Mont-Louis - 45138 Baie-Comeau Airport Havre-Saint-Pierre Airport Longue-Pointe-de-Mingan Sept-Îles Airport Cap-d'Espoir Rivière-la-Madeleine Gaspé Airport Heath Point La Pocatière Mont-Joli Airport New Carlisle Pointe-au-Père Port Menier Rivière-du-Loup Bas Caraquet Bathurst Airport Bouctouche AAFC Charlo Miramichi Fundy Park (Alma) Grand Manan Kouchibouguac Miscou Island Greater Moncton Int'l Airport Point Lepreau Saint John Airport St. Stephen Baccaro Point Beaver Island Brier Island Caribou Point Debert Grand Étang CFB Greenwood Hart Island Ingonish Beach Kentville AAFC Lunenburg McNabs Island Nappan AAFC North Mountain Parrsboro Sable Island St.Paul Island Shearwater Airport J.A. Douglas McCurdy Sydney Airport Tracadie Western Head Yarmouth Airport Charlottetown Airport East Point North Cape Summerside Burgeo Port aux Basques Sagona Island St. Lawrence Stephenville Airport Winterland Wreckhouse Île aux Perroquets Île Rouge Pointe-des-Monts Pointe-Noire Île Bicquette Cap-Chat Îles de la Madeleine Airport
Legend: buoyBuoy land stationLand Station » US Marine Weather